Time;durP1;ratioP1;P1;durP2;ratioP2;P2;SDS_P1;SDS_P2;PMS_P1;PMS_P2;Temp;Humidity;BMP_temperature;BMP_pressure;BME280_temperature;BME280_humidity;BME280_pressure;Samples;Min_cycle;Max_cycle;Signal;HPM_P1;HPM_P2
2022/04/10 00:01:37;;;;;;;2.60;2.10;;;;;;;3.86;100.00;96328.44;5029408;28;104773;-57
2022/04/10 00:04:06;;;;;;;2.50;2.30;;;;;;;3.85;100.00;96325.03;5028440;28;105056;-56
2022/04/10 00:06:35;;;;;;;3.53;2.10;;;;;;;3.84;100.00;96328.69;5029255;28;102093;-57
2022/04/10 00:09:02;;;;;;;3.30;2.30;;;;;;;3.82;100.00;96320.16;5029244;28;105247;-57
2022/04/10 00:11:29;;;;;;;2.70;2.10;;;;;;;3.73;100.00;96328.53;5031792;28;105328;-56
2022/04/10 00:13:57;;;;;;;3.33;2.30;;;;;;;3.71;100.00;96330.56;5029199;28;105039;-57
2022/04/10 00:16:25;;;;;;;3.67;2.30;;;;;;;3.69;100.00;96327.31;5028234;28;105693;-57
2022/04/10 00:18:53;;;;;;;4.17;2.10;;;;;;;3.68;100.00;96325.72;5029132;28;101959;-57
2022/04/10 00:21:24;;;;;;;3.33;2.23;;;;;;;3.69;100.00;96327.31;5029060;28;105330;-57
2022/04/10 00:23:51;;;;;;;3.67;2.20;;;;;;;3.71;100.00;96320.03;5028435;28;105441;-57
2022/04/10 00:26:18;;;;;;;4.30;2.23;;;;;;;3.65;100.00;96320.88;5028737;28;102219;-56
2022/04/10 00:28:45;;;;;;;2.20;2.00;;;;;;;3.65;100.00;96328.78;5027836;28;104839;-57
2022/04/10 00:31:13;;;;;;;3.77;2.37;;;;;;;3.62;100.00;96327.38;5029491;28;102602;-58
2022/04/10 00:33:42;;;;;;;3.83;2.33;;;;;;;3.60;100.00;96336.47;5032068;28;101782;-58
2022/04/10 00:36:11;;;;;;;2.40;2.17;;;;;;;3.60;100.00;96329.38;5028221;28;103937;-57
2022/04/10 00:38:40;;;;;;;3.90;2.13;;;;;;;3.58;100.00;96330.59;5028811;28;101894;-57
2022/04/10 00:41:08;;;;;;;3.23;2.93;;;;;;;3.62;100.00;96327.38;5028981;28;104286;-57
2022/04/10 00:43:38;;;;;;;2.93;2.50;;;;;;;3.53;100.00;96330.41;5027985;28;105347;-56
2022/04/10 00:46:05;;;;;;;3.77;2.50;;;;;;;3.54;100.00;96337.28;5012233;28;101865;-57
2022/04/10 00:48:32;;;;;;;2.57;2.13;;;;;;;3.52;100.00;96331.44;5028695;28;104049;-57
2022/04/10 00:53:48;;;;;;;2.90;2.17;;;;;;;3.57;100.00;96339.50;5028749;28;101812;-57
2022/04/10 00:56:15;;;;;;;2.87;2.10;;;;;;;3.57;100.00;96334.25;5031153;28;105490;-57
2022/04/10 00:58:42;;;;;;;2.73;2.20;;;;;;;3.53;100.00;96327.78;5028294;28;101931;-57
2022/04/10 01:01:09;;;;;;;2.60;2.40;;;;;;;3.60;100.00;96325.97;5028255;28;105123;-57
2022/04/10 01:03:38;;;;;;;3.37;2.30;;;;;;;3.57;100.00;96319.28;5027960;28;105417;-56
2022/04/10 01:06:05;;;;;;;3.03;2.57;;;;;;;3.58;100.00;96323.53;5028290;28;101888;-57
2022/04/10 01:08:32;;;;;;;4.57;2.87;;;;;;;3.59;100.00;96324.31;5028541;28;104828;-56
2022/04/10 01:11:08;;;;;;;2.47;2.27;;;;;;;3.59;100.00;96321.69;5027739;28;105407;-56
2022/04/10 01:13:36;;;;;;;4.53;2.53;;;;;;;3.60;100.00;96325.97;5028183;28;101800;-58
2022/04/10 01:16:04;;;;;;;4.77;2.53;;;;;;;3.64;100.00;96320.06;5027226;28;104907;-56
2022/04/10 01:18:32;;;;;;;7.07;2.47;;;;;;;3.62;100.00;96326.53;5030986;28;105307;-57
2022/04/10 01:21:03;;;;;;;4.70;2.57;;;;;;;3.63;100.00;96328.97;5028328;28;104757;-57
2022/04/10 01:23:32;;;;;;;3.93;2.60;;;;;;;3.60;100.00;96328.59;5027585;28;105076;-57
2022/04/10 01:26:00;;;;;;;2.97;2.07;;;;;;;3.60;100.00;96329.38;5028234;28;102011;-57
2022/04/10 01:28:27;;;;;;;2.97;2.40;;;;;;;3.62;100.00;96327.38;5027890;28;104855;-57
2022/04/10 01:30:54;;;;;;;5.73;2.37;;;;;;;3.58;100.00;96331.41;5011162;28;105230;-57
2022/04/10 01:33:22;;;;;;;4.87;2.50;;;;;;;3.54;100.00;96335.47;5028194;28;101859;-57
2022/04/10 01:35:50;;;;;;;3.80;2.30;;;;;;;3.54;100.00;96334.66;5028596;28;105272;-57
2022/04/10 01:38:21;;;;;;;2.33;2.13;;;;;;;3.64;100.00;96329.75;5026401;28;105416;-57
2022/04/10 01:40:53;;;;;;;3.43;2.00;;;;;;;3.60;100.00;96334.63;5032655;27;101884;-57
2022/04/10 01:43:20;;;;;;;4.00;2.70;;;;;;;3.60;100.00;96336.47;5030880;28;105081;-57
2022/04/10 01:45:47;;;;;;;3.43;2.30;;;;;;;3.61;100.00;96330.97;5031250;28;101936;-57
2022/04/10 01:48:14;;;;;;;2.40;2.20;;;;;;;3.64;100.00;96329.75;5031449;28;105249;-56
2022/04/10 01:50:42;;;;;;;2.83;2.43;;;;;;;3.67;100.00;96335.41;5030169;28;105708;-57
2022/04/10 01:53:09;;;;;;;2.77;2.30;;;;;;;3.72;100.00;96335.59;5031418;28;102377;-57
2022/04/10 01:55:37;;;;;;;2.50;2.20;;;;;;;3.76;100.00;96338.63;5030825;28;104820;-57
2022/04/10 01:58:06;;;;;;;2.33;2.10;;;;;;;3.80;100.00;96339.81;5030344;28;105183;-57
2022/04/10 02:00:34;;;;;;;4.23;2.27;;;;;;;3.80;100.00;96340.63;5034649;28;101835;-57
2022/04/10 02:03:01;;;;;;;2.27;2.07;;;;;;;3.78;100.00;96342.63;5030594;28;106028;-57
2022/04/10 02:05:42;;;;;;;2.53;2.20;;;;;;;3.75;100.00;96337.00;5031123;28;102005;-56
2022/04/10 02:08:09;;;;;;;3.37;2.10;;;;;;;3.75;100.00;96347.50;4953664;28;105211;-57
2022/04/10 02:10:37;;;;;;;2.97;2.10;;;;;;;3.71;100.00;96343.72;4952683;28;104281;-58
2022/04/10 02:13:07;;;;;;;2.60;2.20;;;;;;;3.67;100.00;96348.56;4951875;28;102488;-57
2022/04/10 02:15:36;;;;;;;4.07;2.47;;;;;;;3.61;100.00;96351.22;4953487;28;105208;-57
2022/04/10 02:18:03;;;;;;;3.27;2.20;;;;;;;3.60;100.00;96352.25;4952946;28;105584;-58
2022/04/10 02:20:32;;;;;;;2.77;2.20;;;;;;;3.58;100.00;96355.09;4953197;28;102094;-57
2022/04/10 02:22:59;;;;;;;3.53;2.43;;;;;;;3.54;100.00;96356.50;4956411;28;105392;-57
2022/04/10 02:25:27;;;;;;;2.50;2.30;;;;;;;3.50;100.00;96359.75;4953348;28;101924;-57
2022/04/10 02:27:54;;;;;;;3.03;2.10;;;;;;;3.47;100.00;96357.53;4953678;28;105495;-57
2022/04/10 02:30:23;;;;;;;2.97;2.10;;;;;;;3.42;100.00;96366.03;4952831;28;104406;-57
2022/04/10 02:32:50;;;;;;;4.87;2.10;;;;;;;3.41;100.00;96361.00;4969616;28;103322;-57
2022/04/10 02:35:17;;;;;;;4.70;2.50;;;;;;;3.35;100.00;96359.19;4953188;28;104920;-57
2022/04/10 02:37:45;;;;;;;2.63;2.30;;;;;;;3.32;100.00;96356.97;4952471;28;105554;-57
2022/04/10 02:40:15;;;;;;;3.03;2.20;;;;;;;3.31;100.00;96360.59;4953255;28;102659;-57
2022/04/10 02:42:42;;;;;;;6.13;2.50;;;;;;;3.31;100.00;96360.59;4953367;28;105683;-56
2022/04/10 02:45:11;;;;;;;3.27;2.40;;;;;;;3.30;100.00;96354.56;4984124;28;105829;-57
2022/04/10 02:47:39;;;;;;;3.93;2.30;;;;;;;3.32;100.00;96359.59;5030232;28;103542;-56
2022/04/10 02:50:07;;;;;;;2.50;2.30;;;;;;;3.29;100.00;96362.66;5029883;28;105658;-57
2022/04/10 02:52:34;;;;;;;2.93;2.30;;;;;;;3.31;100.00;96371.94;5029022;27;101878;-57
2022/04/10 02:55:02;;;;;;;4.10;2.67;;;;;;;3.31;100.00;96363.22;5029882;28;105044;-57
2022/04/10 02:57:29;;;;;;;3.53;2.47;;;;;;;3.33;100.00;96367.28;5029439;28;104058;-57
2022/04/10 02:59:56;;;;;;;2.70;2.37;;;;;;;3.35;100.00;96372.31;5030034;28;101933;-57
2022/04/10 03:02:23;;;;;;;2.60;2.20;;;;;;;3.37;100.00;96370.28;5030223;28;103770;-55
2022/04/10 03:04:53;;;;;;;3.67;2.60;;;;;;;3.35;100.00;96373.16;5029430;28;103638;-57
2022/04/10 03:07:20;;;;;;;3.43;2.43;;;;;;;3.36;100.00;96374.75;5033622;28;101780;-57
2022/04/10 03:09:48;;;;;;;2.50;2.30;;;;;;;3.39;100.00;96376.16;5029587;28;105549;-56
2022/04/10 03:12:17;;;;;;;3.03;2.47;;;;;;;3.39;100.00;96374.34;5029827;28;101958;-57
2022/04/10 03:14:44;;;;;;;3.63;2.83;;;;;;;3.37;100.00;96368.47;5031417;28;102618;-57
2022/04/10 03:17:12;;;;;;;2.80;2.60;;;;;;;3.46;100.00;96374.31;5029314;28;105820;-56
2022/04/10 03:19:39;;;;;;;2.47;2.27;;;;;;;3.52;100.00;96389.25;5029867;28;101940;-55
2022/04/10 03:22:08;;;;;;;3.70;2.40;;;;;;;3.50;100.00;96384.22;5029491;28;105173;-57
2022/04/10 03:24:35;;;;;;;3.20;2.80;;;;;;;3.45;100.00;96388.47;5029379;28;104911;-57
2022/04/10 03:27:04;;;;;;;2.90;2.63;;;;;;;3.48;100.00;96395.94;5029899;28;102162;-57
2022/04/10 03:29:31;;;;;;;3.07;2.50;;;;;;;3.46;100.00;96390.09;5032562;28;105373;-57
2022/04/10 03:32:00;;;;;;;4.03;2.80;;;;;;;3.43;100.00;96396.56;5029465;28;101939;-57
2022/04/10 03:34:27;;;;;;;3.10;2.80;;;;;;;3.48;100.00;96388.06;5029870;28;104888;-57
2022/04/10 03:36:54;;;;;;;4.73;2.87;;;;;;;3.46;100.00;96395.34;5028840;28;105650;-57
2022/04/10 03:39:23;;;;;;;5.30;3.10;;;;;;;3.51;100.00;96392.91;5029712;28;101906;-57
2022/04/10 03:41:50;;;;;;;5.27;2.90;;;;;;;3.48;100.00;96403.81;5029668;28;105137;-57
2022/04/10 03:44:18;;;;;;;3.90;2.90;;;;;;;3.44;100.00;96415.78;5028988;28;105361;-57
2022/04/10 03:46:45;;;;;;;3.90;2.60;;;;;;;3.41;100.00;96395.16;5029171;28;101873;-56
2022/04/10 03:49:13;;;;;;;2.60;2.40;;;;;;;3.38;100.00;96406.09;5029578;28;105051;-56
2022/04/10 03:51:41;;;;;;;4.30;2.70;;;;;;;3.40;100.00;96402.25;5032251;28;105255;-56
2022/04/10 03:54:08;;;;;;;4.47;2.73;;;;;;;3.35;100.00;96406.50;5029493;28;105435;-57
2022/04/10 03:56:37;;;;;;;5.23;3.20;;;;;;;3.33;100.00;96408.53;5028690;28;105022;-57
2022/04/10 03:59:05;;;;;;;3.87;3.23;;;;;;;3.33;100.00;96411.94;5029198;28;102048;-57
2022/04/10 04:01:34;;;;;;;6.73;3.23;;;;;;;3.37;100.00;96413.16;5029273;28;104805;-56
2022/04/10 04:04:01;;;;;;;4.33;3.00;;;;;;;3.32;100.00;96420.03;5028437;27;105762;-58
2022/04/10 04:06:29;;;;;;;4.30;3.00;;;;;;;3.32;100.00;96414.78;5029092;28;101899;-57
2022/04/10 04:08:56;;;;;;;5.43;3.00;;;;;;;3.31;100.00;96415.78;5029314;28;105102;-57
2022/04/10 04:11:24;;;;;;;4.93;2.90;;;;;;;3.28;100.00;96417.00;5031865;28;105047;-57
2022/04/10 04:13:55;;;;;;;3.63;2.87;;;;;;;3.33;100.00;96424.28;5029222;28;103951;-56
2022/04/10 04:16:23;;;;;;;4.40;2.80;;;;;;;3.42;100.00;96415.97;5028545;28;104813;-57
2022/04/10 04:18:51;;;;;;;3.70;2.60;;;;;;;3.37;100.00;96425.47;5028917;28;101924;-57
2022/04/10 04:21:17;;;;;;;3.23;2.80;;;;;;;3.41;100.00;96430.16;5028871;28;105175;-57
2022/04/10 04:23:48;;;;;;;4.43;3.10;;;;;;;3.43;100.00;96432.53;5028423;28;104999;-57
2022/04/10 04:26:15;;;;;;;3.23;2.93;;;;;;;3.39;100.00;96436.63;5028955;28;101970;-57
2022/04/10 04:28:44;;;;;;;5.33;3.27;;;;;;;3.40;100.00;96438.22;5028735;28;105278;-57
2022/04/10 04:31:14;;;;;;;2.73;2.53;;;;;;;3.40;100.00;96440.84;5028371;28;105103;-57
2022/04/10 04:33:41;;;;;;;4.03;2.73;;;;;;;3.39;100.00;96441.88;5032031;28;101861;-57
2022/04/10 04:36:09;;;;;;;4.37;2.97;;;;;;;3.41;100.00;96450.34;5028177;28;104869;-57
2022/04/10 04:38:37;;;;;;;4.13;2.93;;;;;;;3.33;100.00;96448.75;5028888;28;101856;-57
2022/04/10 04:41:08;;;;;;;3.80;2.90;;;;;;;3.21;100.00;96455.63;5029174;28;104975;-56
2022/04/10 04:43:35;;;;;;;3.90;2.90;;;;;;;3.18;100.00;96460.47;5028167;28;104124;-55
2022/04/10 04:46:02;;;;;;;3.90;3.03;;;;;;;3.17;100.00;96464.91;5028615;28;101947;-57
2022/04/10 04:48:31;;;;;;;3.37;3.07;;;;;;;3.13;100.00;96466.34;5028400;28;103638;-57
2022/04/10 04:51:00;;;;;;;3.80;3.50;;;;;;;3.16;100.00;96463.31;5027720;28;105313;-57
2022/04/10 04:53:27;;;;;;;3.50;3.20;;;;;;;3.18;100.00;96471.00;5027253;28;101903;-57
2022/04/10 04:55:54;;;;;;;4.47;3.10;;;;;;;3.13;100.00;96465.53;5031164;28;105091;-57
2022/04/10 04:58:22;;;;;;;3.63;3.30;;;;;;;3.18;100.00;96476.25;5028372;28;101912;-57
2022/04/10 05:00:50;;;;;;;4.13;3.00;;;;;;;3.17;100.00;96474.63;5028497;28;105039;-57
2022/04/10 05:03:19;;;;;;;3.97;3.57;;;;;;;3.15;100.00;96477.47;5027661;28;105554;-57
2022/04/10 05:05:49;;;;;;;4.37;3.17;;;;;;;3.14;100.00;96478.47;5028363;28;102137;-58
2022/04/10 05:08:22;;;;;;;3.47;3.17;;;;;;;3.23;100.00;96479.09;5028448;28;105346;-58
2022/04/10 05:10:52;;;;;;;4.63;3.40;;;;;;;3.32;100.00;96480.47;5027849;28;105150;-58
2022/04/10 05:13:21;;;;;;;4.87;3.40;;;;;;;3.36;100.00;96486.94;5026934;28;101856;-57
2022/04/10 05:15:48;;;;;;;5.33;3.63;;;;;;;3.39;100.00;96489.97;5029307;27;105648;-57
2022/04/10 05:18:19;;;;;;;5.23;3.90;;;;;;;3.40;100.00;96483.72;5034703;28;105518;-57
2022/04/10 05:20:50;;;;;;;5.13;3.10;;;;;;;3.44;100.00;96492.81;5031666;28;105084;-57
2022/04/10 05:23:20;;;;;;;3.40;3.10;;;;;;;3.47;100.00;96487.16;5030918;28;104288;-57
2022/04/10 05:25:55;;;;;;;5.17;3.57;;;;;;;3.50;100.00;96491.19;5031755;28;101859;-58
2022/04/10 05:28:23;;;;;;;3.80;3.10;;;;;;;3.48;100.00;96493.19;5031486;28;105531;-57
2022/04/10 05:30:51;;;;;;;3.90;3.50;;;;;;;3.54;100.00;96495.00;5030953;28;103748;-58
2022/04/10 05:33:24;;;;;;;3.30;3.00;;;;;;;3.52;100.00;96491.78;5031508;28;101885;-56
2022/04/10 05:35:55;;;;;;;3.73;2.90;;;;;;;3.47;100.00;96492.41;5032967;28;102903;-58
2022/04/10 05:38:23;;;;;;;3.20;2.90;;;;;;;3.50;100.00;96493.81;5030811;28;106107;-57
2022/04/10 05:40:52;;;;;;;4.67;2.90;;;;;;;3.50;100.00;96504.34;5034705;28;101902;-58
2022/04/10 05:43:20;;;;;;;2.77;2.50;;;;;;;3.57;100.00;96508.59;5030703;28;104989;-57
2022/04/10 05:45:49;;;;;;;3.43;2.50;;;;;;;3.48;100.00;96514.22;5030981;28;101913;-58
2022/04/10 05:48:16;;;;;;;4.33;2.77;;;;;;;3.49;100.00;96515.88;5032784;28;102520;-56
2022/04/10 05:50:45;;;;;;;4.70;3.00;;;;;;;3.59;100.00;96524.97;5030455;28;105010;-57
2022/04/10 05:53:14;;;;;;;4.87;3.07;;;;;;;3.60;100.00;96529.19;5031014;28;101856;-56
2022/04/10 05:55:42;;;;;;;4.37;2.97;;;;;;;3.62;100.00;96521.94;5030692;28;104794;-58
2022/04/10 05:58:15;;;;;;;5.47;2.87;;;;;;;3.66;100.00;96527.59;5030445;28;104035;-58
2022/04/10 06:00:45;;;;;;;3.17;2.80;;;;;;;3.69;100.00;96524.53;5030966;28;101949;-57
2022/04/10 06:03:18;;;;;;;3.20;2.90;;;;;;;3.74;100.00;96530.00;5033773;28;105517;-57
2022/04/10 06:05:48;;;;;;;4.07;2.93;;;;;;;3.71;100.00;96531.22;5031165;28;101960;-58
2022/04/10 06:08:23;;;;;;;4.43;2.97;;;;;;;3.72;100.00;96539.91;5031157;28;105365;-58
2022/04/10 06:10:51;;;;;;;4.40;3.03;;;;;;;3.74;100.00;96535.25;5030462;28;104424;-57
2022/04/10 06:13:20;;;;;;;2.80;2.60;;;;;;;3.88;100.00;96536.88;5014276;28;101905;-58
2022/04/10 06:16:15;;;;;;;4.93;3.23;;;;;;;3.91;100.00;96542.53;5030738;27;103683;-57
2022/04/10 06:18:46;;;;;;;6.47;3.40;;;;;;;3.85;100.00;96547.78;5030412;28;105177;-58
2022/04/10 06:21:14;;;;;;;4.70;3.30;;;;;;;3.95;100.00;96556.06;5030827;28;101892;-58
2022/04/10 06:23:45;;;;;;;4.73;3.60;;;;;;;3.96;100.00;96549.78;5033228;28;104760;-59
2022/04/10 06:26:33;;;;;;;4.03;3.30;;;;;;;4.02;100.00;96562.13;5030413;27;103112;-59
2022/04/10 06:29:01;;;;;;;4.17;3.23;;;;;;;3.92;100.00;96564.34;5030640;28;104776;-59
2022/04/10 06:31:38;;;;;;;3.70;3.33;;;;;;;3.82;100.00;96564.78;5030253;28;105264;-59
2022/04/10 06:34:06;;;;;;;6.43;4.00;;;;;;;3.86;100.00;96565.19;5030729;28;101948;-59
2022/04/10 06:36:34;;;;;;;8.50;4.20;;;;;;;3.80;100.00;96561.56;5030620;28;104862;-59
2022/04/10 06:39:02;;;;;;;5.43;4.00;;;;;;;3.83;100.00;96573.50;5029776;28;105357;-59
2022/04/10 06:41:33;;;;;;;6.33;4.47;;;;;;;4.03;100.00;96564.56;5030551;28;101774;-59
2022/04/10 06:44:06;;;;;;;4.63;3.83;;;;;;;4.07;100.00;96562.31;5030306;28;105116;-59
2022/04/10 06:47:00;;;;;;;5.87;4.20;;;;;;;4.05;100.00;96569.63;5033174;28;105909;-59
2022/04/10 06:49:33;;;;;;;5.67;4.73;;;;;;;4.12;100.00;96565.97;5030188;28;103484;-59
2022/04/10 06:52:02;;;;;;;8.63;4.33;;;;;;;4.14;100.00;96565.75;5029525;28;105237;-59
2022/04/10 06:54:38;;;;;;;6.10;4.20;;;;;;;4.19;100.00;96571.19;5029923;28;101844;-59
2022/04/10 06:57:05;;;;;;;4.87;4.37;;;;;;;4.28;100.00;96580.50;5030317;28;104736;-59
2022/04/10 06:59:34;;;;;;;7.13;4.90;;;;;;;4.38;100.00;96573.78;5029201;28;105391;-59
2022/04/10 07:02:05;;;;;;;6.63;4.70;;;;;;;4.45;100.00;96579.03;5030104;28;101920;-59
2022/04/10 07:04:33;;;;;;;4.30;3.90;;;;;;;4.48;100.00;96581.25;5029858;28;105184;-59
2022/04/10 07:07:04;;;;;;;5.27;3.70;;;;;;;4.50;100.00;96595.81;5029598;28;105401;-59
2022/04/10 07:09:31;;;;;;;3.97;3.67;;;;;;;4.46;100.00;96585.91;5033523;28;102081;-59
2022/04/10 07:12:01;;;;;;;6.37;4.20;;;;;;;4.51;100.00;96581.63;5029276;28;105119;-59
2022/04/10 07:14:43;;;;;;;4.40;3.77;;;;;;;4.49;100.00;96593.41;5029651;28;102248;-59
2022/04/10 07:17:10;;;;;;;4.80;4.20;;;;;;;4.42;100.00;96601.31;5029961;28;104912;-59
2022/04/10 07:19:38;;;;;;;5.27;4.23;;;;;;;4.47;100.00;96592.81;5029205;28;105516;-59
2022/04/10 07:24:51;;;;;;;5.03;3.70;;;;;;;4.57;100.00;96590.50;5029916;28;105235;-59
2022/04/10 07:27:20;;;;;;;5.20;4.00;;;;;;;4.62;100.00;96601.25;5028667;28;105704;-59
2022/04/10 07:29:56;;;;;;;5.23;3.70;;;;;;;4.66;100.00;96605.09;5029720;28;101904;-59
2022/04/10 07:32:30;;;;;;;5.10;3.77;;;;;;;4.58;100.00;96619.28;5032533;28;104764;-59
2022/04/10 07:35:03;;;;;;;4.63;4.00;;;;;;;4.64;100.00;96599.22;5029564;28;101784;-59
2022/04/10 07:37:41;;;;;;;6.47;4.10;;;;;;;4.66;100.00;96602.44;5029520;27;105453;-59
2022/04/10 07:40:09;;;;;;;4.50;3.90;;;;;;;4.71;100.00;96611.34;5028757;28;105307;-59
2022/04/10 07:42:41;;;;;;;4.80;3.70;;;;;;;4.78;100.00;96604.22;5029334;28;102359;-59
2022/04/10 07:47:25;;;;;;;5.37;4.20;;;;;;;4.98;100.00;96601.50;5029613;28;105183;-59
2022/04/10 07:48:08;;;;;;;4.10;3.50;;;;;;;5.14;100.00;96603.66;5028507;28;104113;-59
2022/04/10 07:50:36;;;;;;;4.30;3.90;;;;;;;5.19;100.00;96601.19;5029408;28;102197;-59
2022/04/10 07:53:04;;;;;;;5.83;5.20;;;;;;;5.33;100.00;96586.91;5029470;28;105067;-59
2022/04/10 07:55:34;;;;;;;7.27;4.30;;;;;;;5.01;100.00;96604.53;5031338;28;105157;-59
2022/04/10 07:58:08;;;;;;;4.33;3.83;;;;;;;4.74;100.00;96629.38;5029166;28;105291;-59
2022/04/10 08:00:37;;;;;;;5.00;4.60;;;;;;;3.90;100.00;96619.00;5028580;28;105073;-59
2022/04/10 08:03:07;;;;;;;4.70;4.30;;;;;;;3.54;100.00;96622.03;5029380;28;101996;-59
2022/04/10 08:06:02;;;;;;;4.97;4.57;;;;;;;3.42;100.00;96630.69;5028820;27;102442;-59
2022/04/10 08:08:32;;;;;;;5.67;5.10;;;;;;;3.43;100.00;96646.28;5028555;28;105383;-59
2022/04/10 08:11:00;;;;;;;5.87;5.23;;;;;;;3.48;100.00;96659.63;5029123;28;101964;-59
2022/04/10 08:13:29;;;;;;;5.43;4.93;;;;;;;3.15;100.00;96663.19;5029295;28;105132;-59
2022/04/10 08:15:56;;;;;;;7.13;5.70;;;;;;;2.74;100.00;96651.94;5029805;28;103026;-59
2022/04/10 08:18:23;;;;;;;6.40;5.80;;;;;;;2.62;100.00;96654.28;5034022;27;101682;-59
2022/04/10 08:20:51;;;;;;;6.80;6.20;;;;;;;2.66;100.00;96646.81;5029466;28;102630;-59
2022/04/10 08:23:18;;;;;;;6.87;6.23;;;;;;;2.78;100.00;96653.97;5030522;28;101709;-59
2022/04/10 08:25:45;;;;;;;7.53;6.60;;;;;;;3.02;100.00;96647.38;5028541;28;104791;-57
2022/04/10 08:28:11;;;;;;;8.20;7.20;;;;;;;3.58;100.00;96648.72;5027904;28;105626;-57
2022/04/10 08:30:41;;;;;;;7.63;6.93;;;;;;;3.90;100.00;96661.09;5028963;28;102027;-58
2022/04/10 08:33:08;;;;;;;8.77;7.27;;;;;;;3.73;100.00;96659.88;5028880;28;104188;-57
2022/04/10 08:35:35;;;;;;;9.43;7.77;;;;;;;3.81;100.00;96662.28;5028176;28;105523;-56
2022/04/10 08:38:03;;;;;;;9.20;6.87;;;;;;;3.62;100.00;96663.91;5032066;28;101869;-54
2022/04/10 08:40:33;;;;;;;10.13;8.40;;;;;;;3.62;100.00;96663.09;5028017;28;103677;-57
2022/04/10 08:43:02;;;;;;;12.63;9.23;;;;;;;3.61;100.00;96651.75;5028699;28;101852;-57
2022/04/10 08:45:30;;;;;;;6.97;6.37;;;;;;;3.63;100.00;96664.72;5028623;28;105169;-57
2022/04/10 08:47:59;;;;;;;7.90;6.67;;;;;;;3.74;100.00;96662.31;5027645;28;105907;-57
2022/04/10 08:50:27;;;;;;;13.43;9.97;;;;;;;3.99;100.00;96667.78;5029415;27;101971;-59
2022/04/10 08:52:59;;;;;;;13.40;10.43;;;;;;;4.19;100.00;96658.03;5031107;28;104992;-57
2022/04/10 08:55:26;;;;;;;15.80;10.57;;;;;;;4.18;100.00;96653.78;5030222;28;105168;-59
2022/04/10 08:57:54;;;;;;;11.10;7.73;;;;;;;4.68;100.00;96650.44;5030672;28;101863;-59
2022/04/10 09:00:22;;;;;;;14.67;10.70;;;;;;;4.93;100.00;96654.03;5034621;28;105281;-60
2022/04/10 09:02:51;;;;;;;12.37;8.57;;;;;;;5.22;100.00;96656.13;5032528;27;101708;-59
2022/04/10 09:05:21;;;;;;;7.37;5.80;;;;;;;5.37;100.00;96651.38;5031864;28;104935;-59
2022/04/10 09:08:07;;;;;;;5.70;5.20;;;;;;;4.89;100.00;96658.09;5031203;28;105712;-60
2022/04/10 09:10:55;;;;;;;6.17;5.60;;;;;;;4.98;100.00;96651.56;5032184;28;102075;-64
2022/04/10 09:13:26;;;;;;;6.20;5.27;;;;;;;5.26;100.00;96659.97;5031791;28;105632;-59
2022/04/10 09:16:00;;;;;;;5.53;5.07;;;;;;;5.19;100.00;96646.81;5031132;28;104381;-59
2022/04/10 09:18:29;;;;;;;4.80;4.33;;;;;;;5.12;100.00;96650.50;5031749;28;101840;-59
2022/04/10 09:21:09;;;;;;;5.60;4.93;;;;;;;5.42;100.00;96643.66;5033321;28;102590;-59
2022/04/10 09:23:35;;;;;;;5.97;5.07;;;;;;;5.77;100.00;96636.91;5034541;28;105806;-59
2022/04/10 09:26:02;;;;;;;5.50;4.97;;;;;;;5.95;100.00;96640.44;5031909;28;105381;-59
2022/04/10 09:28:44;;;;;;;5.37;4.87;;;;;;;6.34;100.00;96639.31;5030884;28;105341;-59
2022/04/10 09:31:28;;;;;;;5.10;4.60;;;;;;;5.88;100.00;96641.53;5031442;28;101950;-59
2022/04/10 09:33:57;;;;;;;5.00;4.50;;;;;;;5.65;100.00;96633.34;5031482;27;102992;-60
2022/04/10 09:36:41;;;;;;;5.30;4.80;;;;;;;5.64;100.00;96637.00;5031015;28;105778;-59
2022/04/10 09:39:11;;;;;;;5.37;4.87;;;;;;;5.89;100.00;96635.25;5031217;28;101859;-60
2022/04/10 09:41:40;;;;;;;8.13;5.70;;;;;;;5.92;100.00;96637.44;5031561;28;104870;-61
2022/04/10 09:44:20;;;;;;;5.87;4.60;;;;;;;5.94;100.00;96640.69;5030892;28;105581;-61
2022/04/10 09:46:59;;;;;;;7.00;4.77;;;;;;;6.24;100.00;96629.25;5034789;28;101969;-61
2022/04/10 09:49:32;;;;;;;6.23;5.60;;;;;;;6.41;100.00;96629.47;5030893;28;105052;-60
2022/04/10 09:52:12;;;;;;;5.90;4.80;;;;;;;6.21;100.00;96615.69;5031180;28;101734;-61
2022/04/10 09:54:42;;;;;;;6.27;4.10;;;;;;;6.09;100.00;96646.44;5030529;28;104957;-65
2022/04/10 09:57:11;;;;;;;3.70;3.30;;;;;;;5.66;100.00;96658.69;5030632;28;105357;-65
2022/04/10 09:59:40;;;;;;;4.00;3.20;;;;;;;4.99;100.00;96664.53;5031304;28;102000;-68
2022/04/10 10:02:09;;;;;;;4.77;3.20;;;;;;;4.90;100.00;96671.06;5030496;27;105264;-65
2022/04/10 10:04:38;;;;;;;3.77;3.20;;;;;;;5.06;100.00;96654.78;5030376;28;105385;-66
2022/04/10 10:07:07;;;;;;;3.27;3.00;;;;;;;5.60;100.00;96652.47;5030975;28;102069;-63
2022/04/10 10:09:37;;;;;;;5.17;3.33;;;;;;;5.57;100.00;96637.03;5033992;28;105282;-68
2022/04/10 10:12:05;;;;;;;4.73;3.33;;;;;;;5.70;100.00;96638.78;5030919;28;101986;-66
2022/04/10 10:14:34;;;;;;;3.63;3.07;;;;;;;5.66;100.00;96634.97;5031199;28;105474;-66
2022/04/10 10:17:04;;;;;;;3.50;3.20;;;;;;;5.58;100.00;96640.50;5030028;28;103794;-66
2022/04/10 10:19:34;;;;;;;4.37;3.83;;;;;;;5.60;100.00;96641.91;5030973;28;101874;-67
2022/04/10 10:22:02;;;;;;;4.80;2.87;;;;;;;5.46;100.00;96637.72;5030698;28;103645;-64
2022/04/10 10:24:34;;;;;;;2.83;2.50;;;;;;;5.51;100.00;96645.03;5030204;28;105253;-62
2022/04/10 10:27:23;;;;;;;3.43;2.80;;;;;;;5.53;100.00;96654.34;5032424;28;101800;-66
2022/04/10 10:30:03;;;;;;;3.17;2.80;;;;;;;5.91;100.00;96641.09;5030891;28;104403;-70
2022/04/10 10:32:41;;;;;;;2.60;2.40;;;;;;;6.30;100.00;96648.69;5033397;28;101955;-74
2022/04/10 10:35:11;;;;;;;3.33;2.70;;;;;;;6.27;100.00;96639.38;5030624;28;103803;-70
2022/04/10 10:37:52;;;;;;;2.83;2.10;;;;;;;6.90;100.00;96645.22;5031470;28;103124;-70
2022/04/10 10:40:20;;;;;;;2.37;2.17;;;;;;;7.16;99.41;96631.69;5032249;27;101868;-64
2022/04/10 10:42:50;;;;;;;2.53;2.30;;;;;;;6.78;94.25;96631.13;5030592;28;103717;-75
2022/04/10 10:45:35;;;;;;;3.23;2.27;;;;;;;6.54;91.20;96650.50;5029755;28;105612;-66
2022/04/10 10:48:37;;;;;;;3.57;2.20;;;;;;;6.19;87.10;96646.75;5030686;28;101970;-66
2022/04/10 10:51:42;;;;;;;3.33;1.40;;;;;;;6.04;85.44;96648.91;4952944;28;105739;-66
2022/04/10 10:54:13;;;;;;;2.47;1.30;;;;;;;5.92;82.03;96650.63;5032949;28;105731;-66
2022/04/10 10:56:43;;;;;;;2.60;1.70;;;;;;;5.94;87.49;96640.69;5030450;28;105053;-66
2022/04/10 10:59:34;;;;;;;3.17;1.57;;;;;;;6.18;91.36;96645.97;5031061;28;101786;-66
2022/04/10 11:02:07;;;;;;;1.53;1.40;;;;;;;6.37;87.38;96638.88;5030044;28;101835;-66
2022/04/10 11:04:39;;;;;;;1.80;1.40;;;;;;;6.58;84.81;96646.38;5031628;28;102495;-65
2022/04/10 11:07:24;;;;;;;1.93;1.77;;;;;;;6.53;87.91;96646.22;5029545;28;105536;-65
2022/04/10 11:09:59;;;;;;;2.83;1.77;;;;;;;7.15;93.54;96643.28;5030348;28;101719;-65
2022/04/10 11:12:32;;;;;;;2.80;2.00;;;;;;;7.04;89.91;96657.25;5029920;28;105232;-65
2022/04/10 11:15:04;;;;;;;2.13;2.03;;;;;;;6.96;87.95;96649.63;5029060;28;104958;-66
2022/04/10 11:17:32;;;;;;;2.67;2.23;;;;;;;7.08;93.49;96647.84;5033321;28;101806;-66
2022/04/10 11:20:02;;;;;;;4.60;3.20;;;;;;;7.05;91.63;96653.59;5029254;28;105392;-66
2022/04/10 11:22:33;;;;;;;2.90;2.40;;;;;;;7.13;91.31;96648.81;5030004;28;101845;-66
2022/04/10 11:25:05;;;;;;;3.23;2.40;;;;;;;7.20;87.79;96651.38;5029987;28;105843;-65
2022/04/10 11:27:43;;;;;;;3.23;2.97;;;;;;;7.47;91.88;96642.84;5029268;28;105418;-65
2022/04/10 11:30:14;;;;;;;2.13;2.03;;;;;;;6.97;86.99;96648.59;5029820;28;101814;-65
2022/04/10 11:32:45;;;;;;;3.17;2.60;;;;;;;7.40;92.22;96649.25;5029948;28;105059;-66
2022/04/10 11:35:17;;;;;;;2.47;2.27;;;;;;;7.35;91.12;96649.13;5029313;28;105284;-66
2022/04/10 11:37:47;;;;;;;3.40;2.50;;;;;;;8.17;85.97;96649.13;5029520;28;102062;-66
2022/04/10 11:40:18;;;;;;;3.03;2.03;;;;;;;8.62;81.66;96643.06;5032700;28;104989;-66
2022/04/10 11:42:45;;;;;;;3.00;2.50;;;;;;;8.45;88.27;96644.00;5029790;28;101790;-66
2022/04/10 11:45:14;;;;;;;2.77;1.90;;;;;;;8.28;91.43;96641.22;5029565;28;103603;-66
2022/04/10 11:47:43;;;;;;;5.43;2.80;;;;;;;7.88;97.00;96657.94;5028788;28;106757;-66